createdAt,value
2018-02-21T00:00:03.506Z,89.40
2018-02-21T00:02:29.968Z,89.60
2018-02-21T00:04:57.141Z,89.50
2018-02-21T00:07:23.651Z,89.50
2018-02-21T00:09:50.118Z,89.50
2018-02-21T00:12:16.545Z,89.80
2018-02-21T00:14:43.212Z,89.60
2018-02-21T00:17:09.633Z,89.30
2018-02-21T00:19:36.030Z,89.40
2018-02-21T00:22:02.485Z,89.50
2018-02-21T00:24:28.912Z,89.60
2018-02-21T00:26:55.333Z,89.60
2018-02-21T00:29:21.747Z,89.40
2018-02-21T00:31:48.217Z,89.40
2018-02-21T00:34:14.633Z,89.40
2018-02-21T00:36:41.819Z,89.40
2018-02-21T00:39:08.306Z,90.00
2018-02-21T00:41:34.729Z,89.50
2018-02-21T00:44:01.166Z,89.80
2018-02-21T00:46:27.607Z,89.70
2018-02-21T00:48:54.741Z,90.00
2018-02-21T00:51:21.176Z,89.20
2018-02-21T00:53:47.601Z,89.40
2018-02-21T00:56:14.036Z,89.50
2018-02-21T00:58:40.474Z,89.30
2018-02-21T01:01:06.998Z,89.20
2018-02-21T01:03:33.436Z,89.10
2018-02-21T01:05:59.897Z,89.20
2018-02-21T01:08:26.294Z,89.30
2018-02-21T01:10:52.749Z,89.30
2018-02-21T01:13:19.198Z,89.40
2018-02-21T01:15:46.410Z,89.20
2018-02-21T01:18:12.862Z,89.20
2018-02-21T01:20:39.305Z,89.40
2018-02-21T01:23:05.801Z,89.40
2018-02-21T01:25:32.272Z,89.40
2018-02-21T01:27:58.726Z,89.60
2018-02-21T01:30:25.886Z,89.70
2018-02-21T01:32:53.046Z,89.50
2018-02-21T01:35:19.498Z,89.50
2018-02-21T01:37:45.940Z,89.80
2018-02-21T01:40:12.380Z,90.00
2018-02-21T01:42:38.780Z,90.00
2018-02-21T01:45:05.948Z,89.60
2018-02-21T01:47:32.370Z,89.60
2018-02-21T01:49:58.812Z,89.50
2018-02-21T01:52:25.215Z,89.50
2018-02-21T01:54:52.366Z,89.70
2018-02-21T01:57:19.565Z,90.20
2018-02-21T01:59:46.020Z,89.80
2018-02-21T02:02:12.456Z,89.90
2018-02-21T02:04:38.907Z,89.90
2018-02-21T02:07:06.112Z,89.80
2018-02-21T02:09:32.529Z,89.80
2018-02-21T02:11:58.974Z,89.70
2018-02-21T02:14:25.433Z,90.00
2018-02-21T02:16:51.883Z,90.00
2018-02-21T02:19:18.350Z,90.00
2018-02-21T02:21:45.533Z,90.00
2018-02-21T02:24:11.979Z,90.00
2018-02-21T02:26:38.421Z,90.00
2018-02-21T02:29:04.896Z,90.00
2018-02-21T02:31:31.332Z,90.00
2018-02-21T02:33:58.524Z,90.00
2018-02-21T02:36:24.978Z,90.40
2018-02-21T02:39:04.494Z,90.00
2018-02-21T02:41:30.896Z,90.00
2018-02-21T02:43:58.101Z,90.00
2018-02-21T02:46:24.508Z,90.00
2018-02-21T02:48:50.926Z,90.00
2018-02-21T02:51:17.351Z,90.00
2018-02-21T02:53:44.546Z,90.00
2018-02-21T02:56:10.966Z,90.00
2018-02-21T02:58:37.461Z,90.00
2018-02-21T03:01:03.903Z,90.00
2018-02-21T03:03:31.130Z,90.00
2018-02-21T03:05:57.541Z,90.00
2018-02-21T03:08:23.999Z,90.00
2018-02-21T03:10:50.396Z,90.00
2018-02-21T03:13:16.859Z,90.00
2018-02-21T03:15:43.289Z,90.00
2018-02-21T03:18:09.773Z,90.00
2018-02-21T03:20:36.928Z,90.00
2018-02-21T03:23:03.364Z,90.00
2018-02-21T03:25:29.769Z,90.00
2018-02-21T03:27:56.190Z,90.00
2018-02-21T03:30:22.638Z,89.90
2018-02-21T03:32:50.533Z,90.00
2018-02-21T03:35:17.740Z,90.00
2018-02-21T03:37:44.145Z,90.00
2018-02-21T03:40:10.584Z,90.00
2018-02-21T03:42:37.020Z,89.80
2018-02-21T03:45:03.439Z,89.90
2018-02-21T03:47:29.850Z,89.80
2018-02-21T03:49:57.028Z,90.00
2018-02-21T03:52:23.450Z,90.00
2018-02-21T03:54:49.891Z,90.00
2018-02-21T03:57:16.288Z,89.60
2018-02-21T03:59:42.744Z,89.30
2018-02-21T04:02:09.157Z,89.00
2018-02-21T04:04:36.333Z,89.50
2018-02-21T04:07:02.760Z,89.50
2018-02-21T04:09:29.940Z,89.90
2018-02-21T04:11:56.381Z,89.90
2018-02-21T04:14:22.853Z,89.80
2018-02-21T04:16:50.036Z,89.40
2018-02-21T04:19:16.489Z,89.40
2018-02-21T04:21:42.936Z,89.20
2018-02-21T04:24:09.364Z,89.20
2018-02-21T04:26:35.760Z,89.30
2018-02-21T04:29:02.942Z,89.40
2018-02-21T04:31:29.344Z,89.40
2018-02-21T04:33:56.498Z,89.60
2018-02-21T04:36:23.645Z,89.60
2018-02-21T04:38:50.835Z,89.70
2018-02-21T04:41:17.329Z,89.60
2018-02-21T04:43:44.494Z,90.00
2018-02-21T04:46:11.677Z,90.10
2018-02-21T04:48:41.969Z,90.00
2018-02-21T04:51:08.437Z,89.60
2018-02-21T04:53:34.881Z,89.10
2018-02-21T04:56:16.300Z,88.90
2018-02-21T04:58:48.896Z,88.60
2018-02-21T05:01:16.124Z,88.90
2018-02-21T05:03:43.289Z,89.00
2018-02-21T05:06:10.479Z,89.10
2018-02-21T05:08:36.884Z,89.10
2018-02-21T05:11:03.360Z,89.10
2018-02-21T05:13:29.800Z,89.30
2018-02-21T05:15:56.385Z,89.40
2018-02-21T05:18:22.938Z,89.50
2018-02-21T05:20:49.378Z,89.60
2018-02-21T05:23:16.665Z,89.60
2018-02-21T05:25:43.272Z,89.50
2018-02-21T05:28:09.703Z,89.10
2018-02-21T05:30:36.154Z,88.90
2018-02-21T05:33:02.603Z,88.70
2018-02-21T05:35:29.109Z,88.70
2018-02-21T05:37:55.541Z,88.40
2018-02-21T05:40:21.982Z,87.90
2018-02-21T05:42:48.404Z,87.60
2018-02-21T05:45:14.870Z,87.80
2018-02-21T05:47:41.286Z,88.10
2018-02-21T05:50:07.762Z,88.10
2018-02-21T05:52:34.193Z,88.00
2018-02-21T05:55:00.654Z,88.10
2018-02-21T05:57:27.077Z,88.30
2018-02-21T05:59:53.580Z,88.60
2018-02-21T06:02:19.983Z,88.20
2018-02-21T06:04:47.605Z,88.40
2018-02-21T06:07:14.036Z,88.40
2018-02-21T06:09:41.242Z,88.90
2018-02-21T06:12:07.722Z,88.20
2018-02-21T06:14:34.137Z,88.00
2018-02-21T06:17:00.559Z,87.90
2018-02-21T06:19:27.213Z,87.90
2018-02-21T06:21:53.673Z,87.80
2018-02-21T06:24:20.092Z,87.20
2018-02-21T06:26:46.542Z,87.00
2018-02-21T06:29:13.024Z,86.80
2018-02-21T06:31:43.384Z,86.60
2018-02-21T06:34:09.792Z,87.10
2018-02-21T06:36:36.353Z,87.30
2018-02-21T06:39:03.276Z,87.50
2018-02-21T06:41:29.733Z,87.40
2018-02-21T06:43:56.180Z,87.30
2018-02-21T06:46:22.615Z,87.20
2018-02-21T06:48:49.025Z,87.40
2018-02-21T06:51:15.513Z,87.60
2018-02-21T06:53:41.994Z,87.30
2018-02-21T06:56:08.467Z,86.80
2018-02-21T06:58:34.980Z,86.60
2018-02-21T07:01:01.510Z,86.50
2018-02-21T07:03:27.930Z,86.00
2018-02-21T07:05:54.381Z,85.80
2018-02-21T07:08:20.856Z,85.60
2018-02-21T07:10:47.400Z,84.90
2018-02-21T07:13:13.940Z,84.20
2018-02-21T07:15:40.529Z,84.90
2018-02-21T07:18:06.964Z,85.30
2018-02-21T07:20:33.457Z,85.20
2018-02-21T07:22:59.888Z,85.30
2018-02-21T07:25:26.319Z,85.30
2018-02-21T07:27:52.744Z,85.00
2018-02-21T07:30:19.904Z,84.10
2018-02-21T07:32:46.388Z,84.10
2018-02-21T07:35:12.826Z,83.30
2018-02-21T07:37:39.297Z,83.10
2018-02-21T07:40:06.481Z,82.90
2018-02-21T07:42:32.941Z,82.70
2018-02-21T07:44:59.541Z,82.40
2018-02-21T07:47:26.003Z,82.20
2018-02-21T07:49:52.444Z,81.90
2018-02-21T07:52:18.936Z,81.20
2018-02-21T07:54:45.490Z,80.00
2018-02-21T07:57:11.942Z,79.40
2018-02-21T07:59:38.396Z,78.80
2018-02-21T08:02:04.824Z,79.00
2018-02-21T08:04:32.754Z,78.10
2018-02-21T08:07:00.286Z,78.10
2018-02-21T08:09:27.498Z,75.90
2018-02-21T08:11:55.958Z,75.90
2018-02-21T08:14:23.504Z,75.20
2018-02-21T08:16:49.953Z,74.50
2018-02-21T08:19:16.404Z,72.50
2018-02-21T08:21:42.853Z,71.50
2018-02-21T08:24:09.306Z,70.90
2018-02-21T08:26:35.776Z,69.60
2018-02-21T08:29:02.354Z,66.80
2018-02-21T08:31:28.792Z,65.80
2018-02-21T08:33:55.976Z,62.60
2018-02-21T08:36:22.425Z,62.50
2018-02-21T08:38:48.894Z,62.40
2018-02-21T08:41:15.341Z,61.00
2018-02-21T08:43:41.784Z,59.30
2018-02-21T08:46:08.222Z,57.80
2018-02-21T08:48:34.725Z,57.20
2018-02-21T08:51:01.173Z,56.70
2018-02-21T08:53:27.607Z,55.50
2018-02-21T08:55:54.114Z,55.20
2018-02-21T08:58:20.593Z,54.10
2018-02-21T09:00:47.065Z,51.40
2018-02-21T09:03:14.282Z,51.00
2018-02-21T09:05:40.754Z,51.00
2018-02-21T09:08:07.220Z,50.90
2018-02-21T09:10:33.716Z,49.30
2018-02-21T09:13:00.192Z,50.20
2018-02-21T09:15:30.642Z,51.80
2018-02-21T09:17:57.127Z,51.60
2018-02-21T09:20:23.615Z,50.10
2018-02-21T09:22:50.087Z,49.00
2018-02-21T09:25:17.272Z,46.90
2018-02-21T09:27:43.713Z,46.90
2018-02-21T09:30:10.182Z,44.50
2018-02-21T09:32:36.636Z,48.50
2018-02-21T09:35:03.848Z,43.90
2018-02-21T09:37:30.288Z,43.90
2018-02-21T09:39:56.706Z,45.30
2018-02-21T09:42:23.129Z,47.80
2018-02-21T09:44:49.557Z,45.40
2018-02-21T09:47:16.036Z,46.20
2018-02-21T09:49:42.483Z,43.90
2018-02-21T09:52:09.863Z,44.30
2018-02-21T09:54:37.073Z,46.70
2018-02-21T09:57:03.600Z,46.70
2018-02-21T09:59:30.067Z,43.00
2018-02-21T10:01:57.281Z,41.60
2018-02-21T10:04:23.755Z,41.60
2018-02-21T10:06:50.920Z,38.30
2018-02-21T10:09:18.145Z,38.40
2018-02-21T10:11:45.634Z,38.40
2018-02-21T10:14:12.130Z,37.70
2018-02-21T10:16:38.630Z,38.70
2018-02-21T10:19:05.106Z,37.30
2018-02-21T10:21:31.581Z,37.30
2018-02-21T10:23:58.088Z,33.10
2018-02-21T10:26:24.653Z,31.00
2018-02-21T10:28:51.881Z,37.00
2018-02-21T10:31:18.341Z,36.90
2018-02-21T10:33:44.834Z,36.20
2018-02-21T10:36:11.372Z,35.40
2018-02-21T10:38:37.939Z,34.70
2018-02-21T10:41:05.156Z,32.50
2018-02-21T10:43:31.658Z,32.50
2018-02-21T10:45:58.123Z,32.60
2018-02-21T10:48:25.350Z,30.50
2018-02-21T10:50:51.834Z,30.50
2018-02-21T10:53:19.577Z,30.40
2018-02-21T10:55:46.804Z,30.90
2018-02-21T10:58:13.295Z,31.00
2018-02-21T11:00:46.690Z,30.60
2018-02-21T11:03:13.301Z,30.70
2018-02-21T11:05:39.768Z,28.30
2018-02-21T11:08:07.022Z,26.60
2018-02-21T11:10:34.201Z,27.80
2018-02-21T11:13:00.686Z,27.80
2018-02-21T11:15:27.179Z,27.30
2018-02-21T11:17:53.813Z,27.90
2018-02-21T11:20:20.304Z,28.80
2018-02-21T11:22:47.191Z,28.60
2018-02-21T11:25:13.769Z,29.00
2018-02-21T11:27:40.284Z,27.80
2018-02-21T11:30:06.872Z,28.00
2018-02-21T11:32:33.432Z,28.20
2018-02-21T11:35:00.774Z,29.60
2018-02-21T11:37:27.954Z,30.20
2018-02-21T11:39:54.513Z,30.20
2018-02-21T11:42:21.000Z,30.40
2018-02-21T11:44:47.512Z,30.00
2018-02-21T11:47:13.991Z,30.30
2018-02-21T11:49:40.687Z,28.70
2018-02-21T11:52:07.230Z,27.70
2018-02-21T11:54:33.846Z,29.10
2018-02-21T11:57:01.082Z,29.10
2018-02-21T11:59:27.840Z,28.60
2018-02-21T12:01:54.371Z,29.00
2018-02-21T12:04:20.829Z,28.40
2018-02-21T12:06:48.104Z,28.50
2018-02-21T12:09:14.654Z,28.50
2018-02-21T12:11:41.198Z,28.90
2018-02-21T12:14:07.680Z,28.80
2018-02-21T12:16:34.154Z,27.80
2018-02-21T12:19:00.689Z,28.00
2018-02-21T12:21:27.222Z,27.70
2018-02-21T12:23:54.595Z,29.20
2018-02-21T12:26:21.142Z,29.20
2018-02-21T12:28:47.669Z,29.40
2018-02-21T12:31:14.218Z,29.10
2018-02-21T12:33:40.714Z,29.80
2018-02-21T12:36:07.187Z,29.00
2018-02-21T12:38:33.825Z,29.10
2018-02-21T12:41:06.433Z,28.70
2018-02-21T12:43:32.913Z,29.10
2018-02-21T12:46:00.170Z,30.60
2018-02-21T12:48:28.477Z,32.30
2018-02-21T12:50:56.005Z,32.20
2018-02-21T12:53:22.514Z,31.90
2018-02-21T12:55:49.957Z,31.20
2018-02-21T12:58:16.526Z,31.20
2018-02-21T13:00:43.833Z,30.40
2018-02-21T13:03:10.287Z,29.70
2018-02-21T13:05:36.764Z,30.50
2018-02-21T13:08:03.255Z,30.10
2018-02-21T13:10:30.553Z,30.20
2018-02-21T13:12:57.041Z,30.20
2018-02-21T13:15:23.551Z,29.00
2018-02-21T13:17:50.053Z,29.60
2018-02-21T13:20:16.546Z,30.80
2018-02-21T13:22:42.998Z,31.60
2018-02-21T13:25:10.262Z,30.90
2018-02-21T13:27:36.809Z,30.90
2018-02-21T13:30:04.015Z,31.80
2018-02-21T13:32:30.448Z,31.60
2018-02-21T13:34:57.052Z,30.50
2018-02-21T13:37:23.606Z,32.30
2018-02-21T13:39:50.101Z,30.80
2018-02-21T13:42:17.332Z,30.10
2018-02-21T13:44:43.800Z,30.70
2018-02-21T13:47:11.037Z,32.60
2018-02-21T13:49:37.605Z,32.60
2018-02-21T13:52:04.061Z,32.30
2018-02-21T13:54:30.530Z,30.70
2018-02-21T13:56:57.808Z,32.00
2018-02-21T13:59:24.420Z,32.00
2018-02-21T14:01:50.894Z,33.80
2018-02-21T14:04:17.383Z,35.50
2018-02-21T14:06:43.856Z,34.50
2018-02-21T14:09:11.057Z,36.70
2018-02-21T14:11:37.535Z,36.60
2018-02-21T14:14:04.011Z,36.70
2018-02-21T14:16:30.565Z,35.50
2018-02-21T14:18:57.068Z,34.60
2018-02-21T14:21:23.605Z,34.90
2018-02-21T14:23:51.125Z,35.40
2018-02-21T14:26:17.601Z,36.20
2018-02-21T14:28:44.062Z,37.30
2018-02-21T14:31:10.497Z,35.70
2018-02-21T14:33:36.917Z,36.80
2018-02-21T14:36:03.390Z,37.00
2018-02-21T14:38:29.906Z,37.80
2018-02-21T14:40:56.380Z,37.00
2018-02-21T14:43:22.803Z,37.50
2018-02-21T14:45:49.240Z,38.00
2018-02-21T14:48:16.441Z,39.50
2018-02-21T14:50:42.889Z,39.50
2018-02-21T14:53:09.343Z,38.50
2018-02-21T14:55:35.788Z,40.30
2018-02-21T14:58:02.210Z,39.70
2018-02-21T15:00:28.670Z,41.40
2018-02-21T15:02:55.188Z,41.30
2018-02-21T15:05:21.673Z,43.20
2018-02-21T15:07:48.125Z,42.20
2018-02-21T15:10:14.621Z,43.30
2018-02-21T15:12:45.745Z,43.00
2018-02-21T15:15:12.209Z,42.90
2018-02-21T15:17:38.714Z,44.30
2018-02-21T15:20:05.147Z,44.90
2018-02-21T15:22:31.618Z,45.40
2018-02-21T15:24:58.815Z,45.70
2018-02-21T15:27:25.263Z,45.60
2018-02-21T15:29:51.723Z,46.30
2018-02-21T15:32:19.001Z,46.20
2018-02-21T15:34:45.461Z,46.20
2018-02-21T15:37:11.967Z,47.00
2018-02-21T15:39:39.155Z,47.60
2018-02-21T15:42:05.609Z,47.60
2018-02-21T15:44:32.026Z,47.20
2018-02-21T15:46:58.497Z,48.50
2018-02-21T15:49:25.013Z,48.30
2018-02-21T15:51:51.455Z,48.60
2018-02-21T15:54:18.019Z,49.10
2018-02-21T15:56:45.225Z,50.40
2018-02-21T15:59:29.926Z,50.30
2018-02-21T16:02:10.465Z,51.80
2018-02-21T16:04:37.013Z,51.80
2018-02-21T16:07:04.459Z,53.40
2018-02-21T16:09:31.004Z,53.40
2018-02-21T16:12:00.338Z,54.30
2018-02-21T16:14:28.371Z,54.30
2018-02-21T16:16:55.853Z,55.00
2018-02-21T16:19:23.062Z,54.20
2018-02-21T16:21:53.381Z,54.70
2018-02-21T16:24:19.842Z,55.40
2018-02-21T16:26:47.731Z,55.50
2018-02-21T16:29:15.270Z,55.80
2018-02-21T16:31:41.864Z,56.60
2018-02-21T16:34:08.546Z,57.20
2018-02-21T16:36:35.298Z,57.40
2018-02-21T16:39:01.738Z,57.80
2018-02-21T16:41:28.205Z,58.30
2018-02-21T16:43:54.642Z,58.70
2018-02-21T16:46:21.151Z,58.90
2018-02-21T16:48:47.665Z,59.40
2018-02-21T16:51:14.170Z,60.00
2018-02-21T16:53:41.662Z,60.00
2018-02-21T16:56:08.194Z,59.90
2018-02-21T16:58:35.451Z,60.60
2018-02-21T17:01:02.676Z,60.80
2018-02-21T17:03:29.116Z,60.80
2018-02-21T17:05:55.545Z,61.40
2018-02-21T17:08:21.957Z,61.60
2018-02-21T17:10:48.400Z,61.70
2018-02-21T17:13:14.858Z,62.60
2018-02-21T17:15:41.349Z,62.80
2018-02-21T17:18:07.803Z,62.70
2018-02-21T17:20:34.277Z,63.00
2018-02-21T17:23:00.753Z,63.90
2018-02-21T17:25:27.917Z,64.10
2018-02-21T17:27:54.385Z,64.00
2018-02-21T17:30:21.518Z,64.60
2018-02-21T17:32:48.086Z,65.30
2018-02-21T17:35:14.544Z,65.30
2018-02-21T17:37:41.735Z,65.50
2018-02-21T17:40:08.170Z,65.40
2018-02-21T17:42:34.612Z,65.50
2018-02-21T17:45:04.957Z,65.90
2018-02-21T17:47:31.409Z,66.10
2018-02-21T17:49:57.834Z,66.50
2018-02-21T17:52:24.281Z,66.50
2018-02-21T17:54:50.746Z,67.00
2018-02-21T17:57:17.201Z,67.00
2018-02-21T17:59:47.462Z,67.20
2018-02-21T18:02:13.934Z,68.70
2018-02-21T18:04:41.385Z,67.90
2018-02-21T18:07:07.866Z,67.80
2018-02-21T18:09:34.341Z,68.20
2018-02-21T18:12:00.776Z,68.60
2018-02-21T18:14:28.114Z,68.40
2018-02-21T18:16:54.602Z,68.40
2018-02-21T18:19:28.205Z,68.30
2018-02-21T18:21:54.652Z,68.50
2018-02-21T18:24:21.090Z,68.50
2018-02-21T18:26:47.570Z,68.40
2018-02-21T18:29:14.011Z,68.40
2018-02-21T18:31:40.574Z,68.40
2018-02-21T18:34:07.855Z,68.60
2018-02-21T18:36:34.625Z,68.50
2018-02-21T18:39:01.158Z,68.90
2018-02-21T18:41:27.578Z,69.20
2018-02-21T18:43:54.135Z,69.40
2018-02-21T18:46:20.597Z,69.30
2018-02-21T18:48:47.965Z,69.50
2018-02-21T18:51:15.220Z,69.70
2018-02-21T18:53:42.532Z,69.90
2018-02-21T18:56:08.970Z,69.90
2018-02-21T18:58:35.558Z,69.90
2018-02-21T19:01:05.198Z,70.20
2018-02-21T19:03:31.709Z,70.40
2018-02-21T19:05:58.174Z,70.60
2018-02-21T19:08:24.713Z,70.70
2018-02-21T19:10:51.423Z,70.70
2018-02-21T19:13:17.945Z,71.10
2018-02-21T19:15:44.413Z,71.00
2018-02-21T19:18:10.902Z,71.00
2018-02-21T19:20:37.337Z,70.80
2018-02-21T19:23:04.546Z,71.00
2018-02-21T19:25:30.968Z,71.20
2018-02-21T19:27:57.526Z,71.30
2018-02-21T19:30:23.936Z,71.40
2018-02-21T19:32:50.625Z,71.40
2018-02-21T19:35:17.337Z,71.30
2018-02-21T19:37:43.773Z,71.50
2018-02-21T19:40:10.199Z,71.80
2018-02-21T19:42:36.629Z,71.60
2018-02-21T19:45:03.098Z,71.80
2018-02-21T19:47:29.576Z,71.80
2018-02-21T19:49:56.044Z,72.00
2018-02-21T19:52:22.544Z,72.40
2018-02-21T19:54:48.953Z,72.20
2018-02-21T19:57:16.113Z,72.70
2018-02-21T19:59:42.569Z,72.70
2018-02-21T20:02:09.029Z,72.70
2018-02-21T20:04:35.454Z,73.00
2018-02-21T20:07:01.878Z,73.00
2018-02-21T20:09:28.292Z,73.00
2018-02-21T20:11:54.785Z,73.00
2018-02-21T20:14:21.996Z,73.30
2018-02-21T20:16:48.436Z,73.30
2018-02-21T20:19:14.893Z,73.50
2018-02-21T20:21:41.330Z,74.00
2018-02-21T20:24:11.601Z,74.40
2018-02-21T20:26:39.822Z,74.80
2018-02-21T20:29:06.277Z,74.70
2018-02-21T20:31:32.688Z,75.00
2018-02-21T20:33:59.144Z,75.50
2018-02-21T20:36:29.536Z,75.70
2018-02-21T20:38:59.810Z,75.50
2018-02-21T20:41:26.962Z,75.90
2018-02-21T20:43:53.418Z,75.70
2018-02-21T20:46:19.849Z,76.00
2018-02-21T20:48:46.312Z,75.90
2018-02-21T20:51:16.716Z,75.90
2018-02-21T20:53:47.706Z,76.30
2018-02-21T20:56:14.151Z,76.30
2018-02-21T20:58:40.588Z,76.20
2018-02-21T21:01:07.033Z,76.30
2018-02-21T21:03:33.473Z,76.40
2018-02-21T21:06:00.789Z,76.60
2018-02-21T21:08:27.243Z,76.40
2018-02-21T21:10:53.650Z,76.60
2018-02-21T21:13:20.097Z,76.60
2018-02-21T21:15:46.540Z,76.80
2018-02-21T21:18:13.002Z,76.60
2018-02-21T21:20:40.197Z,77.00
2018-02-21T21:23:06.637Z,76.90
2018-02-21T21:25:36.974Z,77.10
2018-02-21T21:28:03.434Z,76.70
2018-02-21T21:30:30.621Z,76.70
2018-02-21T21:32:57.087Z,76.70
2018-02-21T21:35:23.505Z,76.60
2018-02-21T21:37:50.064Z,76.80
2018-02-21T21:40:17.353Z,76.60
2018-02-21T21:42:44.577Z,76.30
2018-02-21T21:45:11.787Z,76.30
2018-02-21T21:47:38.360Z,76.20
2018-02-21T21:50:04.906Z,76.20
2018-02-21T21:52:31.317Z,76.20
2018-02-21T21:54:57.770Z,76.00
2018-02-21T21:57:24.234Z,76.20
2018-02-21T21:59:50.727Z,76.50
2018-02-21T22:02:17.149Z,76.50
2018-02-21T22:04:43.609Z,76.30
2018-02-21T22:07:10.038Z,76.40
2018-02-21T22:09:36.475Z,76.50
2018-02-21T22:12:03.698Z,76.80
2018-02-21T22:14:30.187Z,76.70
2018-02-21T22:16:57.433Z,77.10
2018-02-21T22:19:24.636Z,77.10
2018-02-21T22:21:51.060Z,77.10
2018-02-21T22:24:17.577Z,76.90
2018-02-21T22:26:44.783Z,77.10
2018-02-21T22:32:09.363Z,77.20
2018-02-21T22:34:36.001Z,77.30
2018-02-21T22:37:02.550Z,77.30
2018-02-21T22:39:29.447Z,77.30
2018-02-21T22:41:56.789Z,77.30
2018-02-21T22:44:23.326Z,77.30
2018-02-21T22:46:54.621Z,77.40
2018-02-21T22:49:21.154Z,77.40
2018-02-21T22:51:47.686Z,77.60
2018-02-21T22:54:14.499Z,77.60
2018-02-21T22:56:41.770Z,77.50
2018-02-21T22:59:08.310Z,77.50
2018-02-21T23:01:34.971Z,77.70
2018-02-21T23:04:01.544Z,77.90
2018-02-21T23:06:28.185Z,78.00
2018-02-21T23:08:54.783Z,78.20
2018-02-21T23:11:21.319Z,78.20
2018-02-21T23:13:48.650Z,78.60
2018-02-21T23:16:15.280Z,78.60
2018-02-21T23:18:41.954Z,78.50
2018-02-21T23:21:08.609Z,78.70
2018-02-21T23:23:35.207Z,78.70
2018-02-21T23:26:01.755Z,78.60
2018-02-21T23:28:28.306Z,78.70
2018-02-21T23:30:54.952Z,78.70
2018-02-21T23:33:21.528Z,78.60
2018-02-21T23:35:48.876Z,78.70
2018-02-21T23:38:16.218Z,78.70
2018-02-21T23:40:42.809Z,78.70
2018-02-21T23:43:09.330Z,78.60
2018-02-21T23:45:35.922Z,78.60
2018-02-21T23:48:02.583Z,78.60
2018-02-21T23:50:29.134Z,78.60
2018-02-21T23:52:56.534Z,78.60
2018-02-21T23:55:23.084Z,78.50
2018-02-21T23:57:49.620Z,78.60
